createdAt,value
2023-03-26T00:00:17.257Z,0.20
2023-03-26T00:06:08.810Z,0.52
2023-03-26T00:12:01.632Z,0.45
2023-03-26T00:17:51.836Z,0.40
2023-03-26T00:23:13.474Z,0.40
2023-03-26T00:28:35.718Z,0.30
2023-03-26T00:34:27.948Z,0.30
2023-03-26T00:47:21.344Z,0.50
2023-03-26T00:52:46.324Z,0.30
2023-03-26T00:58:15.161Z,0.47
2023-03-26T01:03:52.993Z,0.38
2023-03-26T01:10:38.804Z,0.20
2023-03-26T01:16:37.422Z,0.30
2023-03-26T01:22:01.543Z,0.30
2023-03-26T01:28:00.977Z,0.20
2023-03-26T01:42:08.285Z,0.60
2023-03-26T01:47:39.999Z,0.30
2023-03-26T01:54:02.143Z,0.22
2023-03-26T02:00:11.788Z,0.30
2023-03-26T02:13:45.578Z,0.13
2023-03-26T02:19:21.931Z,0.60
2023-03-26T02:24:43.562Z,0.40
2023-03-26T02:31:04.993Z,0.20
2023-03-26T02:36:27.503Z,0.20
2023-03-26T02:41:52.113Z,0.40
2023-03-26T02:47:13.396Z,0.20
2023-03-26T02:53:37.684Z,0.20
2023-03-26T02:59:30.429Z,0.30
2023-03-26T03:06:03.138Z,0.30
2023-03-26T03:11:56.871Z,0.60
2023-03-26T03:17:55.901Z,0.30
2023-03-26T03:23:49.092Z,0.50
2023-03-26T03:30:45.932Z,0.40
2023-03-26T03:37:11.009Z,0.40
2023-03-26T03:42:46.641Z,0.40
2023-03-26T03:49:17.076Z,0.40
2023-03-26T03:55:07.379Z,0.57
2023-03-26T04:01:33.068Z,0.35
2023-03-26T04:07:37.110Z,0.32
2023-03-26T04:13:29.467Z,0.30
2023-03-26T04:19:58.218Z,0.32
2023-03-26T04:25:30.731Z,0.22
2023-03-26T04:33:31.860Z,0.30
2023-03-26T04:38:53.392Z,0.40
2023-03-26T04:44:22.641Z,0.20
2023-03-26T04:50:45.469Z,0.65
2023-03-26T04:56:44.145Z,0.38
2023-03-26T05:02:59.499Z,0.40
2023-03-26T05:08:56.500Z,0.50
2023-03-26T05:14:38.753Z,0.40
2023-03-26T05:20:20.702Z,0.30
2023-03-26T05:25:41.382Z,0.40
2023-03-26T05:31:10.144Z,0.60
2023-03-26T05:36:37.935Z,0.50
2023-03-26T05:42:23.329Z,0.90
2023-03-26T05:48:00.053Z,1.02
2023-03-26T05:53:21.585Z,0.50
2023-03-26T05:59:22.500Z,0.63
2023-03-26T06:05:54.189Z,0.47
2023-03-26T06:12:16.466Z,0.40
2023-03-26T06:18:41.195Z,0.40
2023-03-26T06:25:11.459Z,0.20
2023-03-26T06:32:18.514Z,0.60
2023-03-26T06:37:48.209Z,0.50
2023-03-26T06:44:14.944Z,0.40
2023-03-26T06:51:12.945Z,0.45
2023-03-26T06:57:05.682Z,0.40
2023-03-26T07:03:30.026Z,0.55
2023-03-26T07:09:19.186Z,0.60
2023-03-26T07:15:40.326Z,0.63
2023-03-26T07:37:53.117Z,0.57
2023-03-26T07:44:17.671Z,0.68
2023-03-26T07:58:36.826Z,0.75
2023-03-26T08:04:51.329Z,0.70
2023-03-26T08:11:26.125Z,0.88
2023-03-26T08:17:11.751Z,0.70
2023-03-26T08:22:41.841Z,0.40
2023-03-26T08:28:16.496Z,0.50
2023-03-26T08:33:45.902Z,0.38
2023-03-26T08:39:06.803Z,0.50
2023-03-26T08:44:58.055Z,0.70
2023-03-26T08:50:46.829Z,0.60
2023-03-26T08:56:19.943Z,0.73
2023-03-26T09:02:21.798Z,0.57
2023-03-26T09:13:28.323Z,0.60
2023-03-26T09:19:30.731Z,0.40
2023-03-26T09:24:54.660Z,0.70
2023-03-26T09:30:22.211Z,0.40
2023-03-26T09:35:54.153Z,0.68
2023-03-26T09:41:21.718Z,0.45
2023-03-26T09:47:03.773Z,0.43
2023-03-26T09:52:50.216Z,0.25
2023-03-26T09:58:38.342Z,0.52
2023-03-26T10:04:40.547Z,0.57
2023-03-26T10:10:19.875Z,0.50
2023-03-26T10:15:52.499Z,0.43
2023-03-26T10:21:34.843Z,0.50
2023-03-26T10:27:17.551Z,0.50
2023-03-26T10:33:09.768Z,0.75
2023-03-26T10:38:52.633Z,0.60
2023-03-26T10:44:35.338Z,0.73
2023-03-26T10:50:04.872Z,0.83
2023-03-26T10:55:33.940Z,0.90
2023-03-26T11:01:05.589Z,0.90
2023-03-26T11:06:31.179Z,0.70
2023-03-26T11:12:37.313Z,0.70
2023-03-26T11:18:23.922Z,0.65
2023-03-26T11:24:04.863Z,0.70
2023-03-26T11:29:49.092Z,0.80
2023-03-26T11:40:48.876Z,0.70
2023-03-26T11:46:18.793Z,0.85
2023-03-26T11:51:40.324Z,0.63
2023-03-26T11:57:10.236Z,0.93
2023-03-26T12:02:38.729Z,0.70
2023-03-26T12:08:00.888Z,1.00
2023-03-26T12:13:42.173Z,1.13
2023-03-26T12:19:10.187Z,1.13
2023-03-26T12:24:32.698Z,0.82
2023-03-26T12:30:35.579Z,0.90
2023-03-26T12:35:58.068Z,0.90
2023-03-26T12:44:42.140Z,0.85
2023-03-26T12:48:26.636Z,0.95
2023-03-26T12:54:28.834Z,0.68
2023-03-26T13:00:12.252Z,0.60
2023-03-26T13:06:10.625Z,0.68
2023-03-26T13:12:00.827Z,0.50
2023-03-26T13:18:02.429Z,0.70
2023-03-26T13:39:19.270Z,0.52
2023-03-26T14:01:01.940Z,0.75
2023-03-26T14:06:42.112Z,0.77
2023-03-26T14:12:26.489Z,0.90
2023-03-26T14:18:06.157Z,1.05
2023-03-26T14:24:00.653Z,1.05
2023-03-26T14:29:35.152Z,1.15
2023-03-26T14:35:20.198Z,0.98
2023-03-26T14:41:10.514Z,0.80
2023-03-26T14:47:01.600Z,1.05
2023-03-26T14:53:01.291Z,1.20
2023-03-26T14:58:47.855Z,0.85
2023-03-26T15:04:30.615Z,1.13
2023-03-26T15:10:10.276Z,1.23
2023-03-26T15:15:55.908Z,1.60
2023-03-26T15:21:53.253Z,1.45
2023-03-26T15:27:26.851Z,1.65
2023-03-26T15:33:24.827Z,1.20
2023-03-26T15:39:05.522Z,1.08
2023-03-26T15:45:00.657Z,0.90
2023-03-26T15:50:33.871Z,1.08
2023-03-26T15:56:07.311Z,1.15
2023-03-26T16:09:27.095Z,1.00
2023-03-26T16:14:48.568Z,0.55
2023-03-26T16:20:32.676Z,0.60
2023-03-26T16:26:17.191Z,0.77
2023-03-26T16:31:39.447Z,1.20
2023-03-26T16:37:00.817Z,0.70
2023-03-26T16:42:27.710Z,0.60
2023-03-26T16:48:01.631Z,1.00
2023-03-26T17:01:32.648Z,1.00
2023-03-26T17:07:08.826Z,0.70
2023-03-26T17:12:33.817Z,1.50
2023-03-26T17:18:19.484Z,1.80
2023-03-26T17:24:07.986Z,1.27
2023-03-26T17:30:03.911Z,1.10
2023-03-26T17:35:38.108Z,1.40
2023-03-26T17:40:59.670Z,1.42
2023-03-26T17:46:56.044Z,1.73
2023-03-26T17:52:48.420Z,2.40
2023-03-26T17:58:29.195Z,2.90
2023-03-26T18:03:51.569Z,3.40
2023-03-26T18:09:24.652Z,3.03
2023-03-26T18:15:19.289Z,3.00
2023-03-26T18:26:43.253Z,2.78
2023-03-26T18:32:40.939Z,3.20
2023-03-26T18:38:03.505Z,3.10
2023-03-26T18:43:35.135Z,2.85
2023-03-26T18:49:03.242Z,2.40
2023-03-26T18:54:24.929Z,2.90
2023-03-26T19:00:28.499Z,3.13
2023-03-26T19:05:50.409Z,4.45
2023-03-26T19:11:44.238Z,4.53
2023-03-26T19:17:35.435Z,6.03
2023-03-26T19:22:59.930Z,6.03
2023-03-26T19:28:56.340Z,7.22
2023-03-26T19:34:26.101Z,7.72
2023-03-26T19:39:51.959Z,6.82
2023-03-26T19:45:59.675Z,9.35
2023-03-26T19:51:24.116Z,9.23
2023-03-26T19:56:44.940Z,7.57
2023-03-26T20:02:10.919Z,5.95
2023-03-26T20:08:15.125Z,5.50
2023-03-26T20:13:44.970Z,6.93
2023-03-26T20:19:05.851Z,6.82
2023-03-26T20:24:34.971Z,5.22
2023-03-26T20:29:56.036Z,4.53
2023-03-26T20:35:35.537Z,4.28
2023-03-26T20:40:58.316Z,3.90
2023-03-26T20:46:21.456Z,3.63
2023-03-26T20:51:43.718Z,4.10
2023-03-26T20:57:04.688Z,3.50
2023-03-26T21:02:27.111Z,3.67
2023-03-26T21:07:48.710Z,3.65
2023-03-26T21:13:25.213Z,3.70
2023-03-26T21:18:46.525Z,3.60
2023-03-26T21:24:23.912Z,3.58
2023-03-26T21:29:44.874Z,3.80
2023-03-26T21:35:06.443Z,5.82
2023-03-26T21:40:28.054Z,7.60
2023-03-26T21:45:50.385Z,7.47
2023-03-26T21:51:14.832Z,9.27
2023-03-26T21:56:41.618Z,9.18
2023-03-26T22:02:13.839Z,9.20
2023-03-26T22:07:47.510Z,9.45
2023-03-26T22:13:08.426Z,10.60
2023-03-26T22:18:30.139Z,11.15
2023-03-26T22:23:54.653Z,10.18
2023-03-26T22:29:15.809Z,9.05
2023-03-26T22:34:38.143Z,8.55
2023-03-26T22:40:00.110Z,6.63
2023-03-26T22:45:20.620Z,5.55
2023-03-26T22:50:41.299Z,5.55
2023-03-26T22:56:02.921Z,4.10
2023-03-26T23:01:24.255Z,4.78
2023-03-26T23:06:45.295Z,5.18
2023-03-26T23:12:08.555Z,4.25
2023-03-26T23:17:29.505Z,4.70
2023-03-26T23:22:50.764Z,4.05
2023-03-26T23:28:12.036Z,4.65
2023-03-26T23:33:35.393Z,4.85
2023-03-26T23:38:56.573Z,4.57
2023-03-26T23:44:17.586Z,4.75
2023-03-26T23:49:38.258Z,4.68
2023-03-26T23:54:59.920Z,4.60
